Hope, ME (04847)

8:11 AM EDT on May 04, 2015 (GMT -0400)
Hope, Maine: Church Street Apple Orchard | | Change Station
CLOSE
Current Station
Personal Weather Station
Location: Hope, ME
Elevation: 420 ft
Nearby Weather Stations

Elev 420 ft 44.27 °N, 69.15 °W | Updated 1 minute ago

Clear
Clear
55.4 °F
Feels Like 55.4 °F
N
0.0
Wind Variable Wind from SE
Gusts 0.0 mph

Today
High -- | Low -- °F
--% Chance of Precip.
Yesterday
High -- | Low -- °F
Precip. -- in
5:23 AM 7:43 PM
Full, 100% visible
Pressure 30.16 in
Visibility 10.0 miles
Clouds Clear
Dew Point 49 °F
Humidity 78%
Rainfall 0.00 in
Snow Depth Not available.
UV 2 out of 12
Pollen 10.60 out of 12
Air Quality Not available.
Flu Activity Regional
METAR KRKD 041155Z AUTO 19004KT 10SM CLR 09/07 A3016 RMK AO1 10090 20010 52010

More Conditions Fewer Conditions

Pressure 30.16 in
Visibility 10.0 miles
Clouds Clear
Dew Point 49 °F
Humidity 78%
Rainfall 0.00 in
Snow Depth Not available.
UV 2 out of 12
Pollen 10.60 out of 12
Air Quality Not available.
Flu Activity Regional
METAR KRKD 041155Z AUTO 19004KT 10SM CLR 09/07 A3016 RMK AO1 10090 20010 52010

More Conditions Fewer Conditions

Nepal has a long way to go to dig out and rebuild from a devastating earthquake. We have teamed up with several charities and organizations to make contributing to the relief effort as easy as possible.
How you can help: Portlight Strategies | Red Cross

10-Day Weather Forecast

Almanac

Astronomy

May. 04, 2015 Rise Set
Actual Time
Civil Twilight
Nautical Twilight
Astronomical Twilight
Moon
Length of Visible Light
Length of Day
Tomorrow will be .
, % of the Moon is Illuminated

Today's Extremes

State Highs State Lows

Community

WunderPhotos

Upload Photos

1,818,582 photos uploaded!

WunderBlogs® & News

Nearby

Air Quality

  Air Quality AQ Index Pollutant
Not available.

Snow Depth

Station Depth Elevation

Earthquake Activity

City Distance Mag. Time & Date
Minimum magnitude displayed is 2.5.

Coastal Water Temperatures

Place Temperature

Stations

Nearby Weather Stations

Station Location Temp. Windchill Dew Point Humidity Wind Precip. Elev Updated Type